Time;durP1;ratioP1;P1;durP2;ratioP2;P2;SDS_P1;SDS_P2;PMS_P1;PMS_P2;Temp;Humidity;BMP_temperature;BMP_pressure;BME280_temperature;BME280_humidity;BME280_pressure;Samples;Min_cycle;Max_cycle;Signal;HPM_P1;HPM_P2
2023/03/15 00:00:53;;;;;;;;;;;;;;;9.52;74.11;98418.81;5094784;28;19927;-65
2023/03/15 00:03:23;;;;;;;;;;;;;;;9.54;74.64;98417.09;5095288;28;19920;-65
2023/03/15 00:05:52;;;;;;;;;;;;;;;9.55;74.48;98413.69;5095223;28;19919;-64
2023/03/15 00:08:22;;;;;;;;;;;;;;;9.56;74.56;98425.53;5095118;28;20358;-64
2023/03/15 00:10:50;;;;;;;;;;;;;;;9.52;73.44;98423.91;5095113;28;19920;-65
2023/03/15 00:13:19;;;;;;;;;;;;;;;9.50;73.88;98425.66;5095067;28;20385;-65
2023/03/15 00:15:48;;;;;;;;;;;;;;;9.47;74.05;98430.78;5094610;28;19926;-65
2023/03/15 00:18:18;;;;;;;;;;;;;;;9.48;73.85;98445.22;5094970;28;19920;-65
2023/03/15 00:20:47;;;;;;;;;;;;;;;9.48;73.95;98452.84;5094631;28;19920;-65
2023/03/15 00:23:16;;;;;;;;;;;;;;;9.47;73.90;98457.09;5094601;28;20346;-65
2023/03/15 00:25:46;;;;;;;;;;;;;;;9.45;74.04;98462.19;5094805;28;20346;-65
2023/03/15 00:28:15;;;;;;;;;;;;;;;9.47;73.40;98471.53;5094600;28;19927;-65
2023/03/15 00:30:43;;;;;;;;;;;;;;;9.45;74.00;98458.84;5094423;28;19949;-65
2023/03/15 00:33:13;;;;;;;;;;;;;;;9.43;73.88;98466.47;5094974;28;19926;-65
2023/03/15 00:35:44;;;;;;;;;;;;;;;9.39;73.58;98464.84;5094798;28;19923;-65
2023/03/15 00:38:13;;;;;;;;;;;;;;;9.39;73.75;98464.84;5094446;28;19920;-65
2023/03/15 00:40:42;;;;;;;;;;;;;;;9.36;73.48;98464.88;5094847;28;19930;-65
2023/03/15 00:43:16;;;;;;;;;;;;;;;9.34;73.70;98456.44;5094842;28;19924;-65
2023/03/15 00:45:45;;;;;;;;;;;;;;;9.34;73.60;98456.44;5094585;28;20423;-65
2023/03/15 00:48:13;;;;;;;;;;;;;;;9.28;73.45;98453.16;5093354;28;19985;-64
2023/03/15 00:50:43;;;;;;;;;;;;;;;9.29;72.10;98453.13;5094142;28;19931;-65
2023/03/15 00:53:11;;;;;;;;;;;;;;;9.29;72.00;98467.53;5094261;28;19980;-65
2023/03/15 00:55:41;;;;;;;;;;;;;;;9.28;71.55;98466.72;5094096;28;19946;-65
2023/03/15 00:58:09;;;;;;;;;;;;;;;9.26;71.36;98473.53;5094310;28;19969;-65
2023/03/15 01:00:40;;;;;;;;;;;;;;;9.25;71.30;98486.28;5094075;28;20017;-65
2023/03/15 01:03:09;;;;;;;;;;;;;;;9.25;70.57;98497.31;5094091;28;19963;-65
2023/03/15 01:05:38;;;;;;;;;;;;;;;9.21;69.61;98505.84;5094296;28;19920;-64
2023/03/15 01:08:07;;;;;;;;;;;;;;;9.16;69.75;98512.72;5094368;28;19920;-64
2023/03/15 01:10:35;;;;;;;;;;;;;;;9.13;69.45;98507.66;5093984;28;19942;-64
2023/03/15 01:13:06;;;;;;;;;;;;;;;9.12;68.96;98505.97;5094299;28;20020;-65
2023/03/15 01:15:34;;;;;;;;;;;;;;;9.12;68.69;98502.59;5092568;28;19920;-65
2023/03/15 01:18:04;;;;;;;;;;;;;;;9.06;68.46;98506.06;5093870;28;19926;-65
2023/03/15 01:20:32;;;;;;;;;;;;;;;9.01;67.60;98507.84;5092963;28;20362;-64
2023/03/15 01:23:01;;;;;;;;;;;;;;;8.93;67.97;98508.78;5093812;28;20015;-65
2023/03/15 01:25:29;;;;;;;;;;;;;;;8.86;66.84;98508.03;5094191;28;20018;-64
2023/03/15 01:27:58;;;;;;;;;;;;;;;8.81;66.24;98525.06;5093806;28;19990;-65
2023/03/15 01:30:26;;;;;;;;;;;;;;;8.75;66.52;98523.44;5094136;28;19963;-65
2023/03/15 01:32:55;;;;;;;;;;;;;;;8.67;66.43;98534.56;5094248;28;20360;-64
2023/03/15 01:35:25;;;;;;;;;;;;;;;8.56;65.47;98528.75;5093746;28;19966;-65
2023/03/15 01:37:54;;;;;;;;;;;;;;;8.49;65.38;98522.91;5092553;28;20336;-65
2023/03/15 01:40:22;;;;;;;;;;;;;;;8.44;64.49;98521.28;5092532;28;19924;-64
2023/03/15 01:42:53;;;;;;;;;;;;;;;8.37;64.57;98538.28;5093595;28;20019;-65
2023/03/15 01:45:32;;;;;;;;;;;;;;;8.36;64.33;98553.53;5092513;28;20373;-65
2023/03/15 01:48:02;;;;;;;;;;;;;;;8.33;64.02;98561.19;5092495;28;20003;-64
2023/03/15 01:50:32;;;;;;;;;;;;;;;8.35;64.41;98569.66;5092742;28;20344;-65
2023/03/15 01:53:00;;;;;;;;;;;;;;;8.34;64.23;98575.59;5092304;28;19924;-65
2023/03/15 01:55:31;;;;;;;;;;;;;;;8.31;64.47;98573.94;5092600;28;19919;-65
2023/03/15 01:58:09;;;;;;;;;;;;;;;8.25;64.72;98573.13;5093848;28;19920;-65
2023/03/15 02:00:41;;;;;;;;;;;;;;;8.25;64.99;98573.97;5093926;28;19920;-65
2023/03/15 02:03:17;;;;;;;;;;;;;;;8.26;64.77;98579.88;5093807;28;20286;-65
2023/03/15 02:05:53;;;;;;;;;;;;;;;8.22;65.30;98583.31;5096289;28;19920;-64
2023/03/15 02:08:36;;;;;;;;;;;;;;;8.07;65.26;98584.28;5097565;28;19926;-65
2023/03/15 02:11:05;;;;;;;;;;;;;;;7.96;65.85;98581.84;5096008;28;19927;-65
2023/03/15 02:13:35;;;;;;;;;;;;;;;7.92;66.30;98590.31;5096077;28;19927;-64
2023/03/15 02:16:08;;;;;;;;;;;;;;;7.85;65.78;98596.31;5096823;28;19942;-65
2023/03/15 02:18:46;;;;;;;;;;;;;;;7.81;66.58;98594.66;5096925;28;19967;-64
2023/03/15 02:21:25;;;;;;;;;;;;;;;7.74;67.56;98593.00;5095730;28;19920;-65
2023/03/15 02:23:58;;;;;;;;;;;;;;;7.68;67.32;98585.44;5097195;28;20351;-65
2023/03/15 02:26:30;;;;;;;;;;;;;;;7.61;67.17;98588.84;5095634;28;19998;-65
2023/03/15 02:29:00;;;;;;;;;;;;;;;7.59;67.25;98599.88;5095654;28;19958;-64
2023/03/15 02:31:36;;;;;;;;;;;;;;;7.57;67.56;98604.13;5097387;28;20360;-64
2023/03/15 02:34:06;;;;;;;;;;;;;;;7.56;66.70;98610.88;5096768;28;19963;-65
2023/03/15 02:36:36;;;;;;;;;;;;;;;7.55;66.63;98604.16;5096552;28;19981;-65
2023/03/15 02:39:14;;;;;;;;;;;;;;;7.54;67.63;98612.59;5096839;28;20316;-65
2023/03/15 02:41:44;;;;;;;;;;;;;;;7.51;67.45;98612.59;5096603;28;20370;-65
2023/03/15 02:44:15;;;;;;;;;;;;;;;7.49;66.72;98621.94;5096831;28;20085;-65
2023/03/15 02:46:45;;;;;;;;;;;;;;;7.48;67.06;98617.72;5096674;28;19920;-64
2023/03/15 02:49:13;;;;;;;;;;;;;;;7.45;66.78;98615.19;5096424;28;19919;-65
2023/03/15 02:51:43;;;;;;;;;;;;;;;7.39;67.31;98612.69;5096945;28;19955;-64
2023/03/15 02:54:12;;;;;;;;;;;;;;;7.30;67.11;98613.59;5095243;28;20424;-65
2023/03/15 02:56:41;;;;;;;;;;;;;;;7.26;67.45;98622.06;5095020;28;19969;-65
2023/03/15 02:59:11;;;;;;;;;;;;;;;7.22;67.10;98619.56;5096322;28;20411;-65
2023/03/15 03:01:44;;;;;;;;;;;;;;;7.14;66.90;98608.59;5095082;28;19920;-66
2023/03/15 03:04:13;;;;;;;;;;;;;;;7.10;67.42;98612.81;5095374;28;20022;-65
2023/03/15 03:06:43;;;;;;;;;;;;;;;7.02;67.36;98618.78;5095406;28;20273;-65
2023/03/15 03:09:17;;;;;;;;;;;;;;;7.02;67.54;98632.31;5094872;28;19959;-65
2023/03/15 03:11:46;;;;;;;;;;;;;;;6.97;67.61;98634.03;5094762;28;19920;-65
2023/03/15 03:14:14;;;;;;;;;;;;;;;6.97;67.68;98636.56;5094735;28;19927;-66
2023/03/15 03:16:44;;;;;;;;;;;;;;;6.96;68.04;98631.50;5093362;28;20019;-65
2023/03/15 03:19:13;;;;;;;;;;;;;;;6.98;68.11;98634.88;5094661;28;19932;-66
2023/03/15 03:21:43;;;;;;;;;;;;;;;6.95;68.31;98634.88;5096102;28;20297;-65
2023/03/15 03:24:14;;;;;;;;;;;;;;;6.90;68.40;98649.25;5094598;28;19955;-65
2023/03/15 03:26:45;;;;;;;;;;;;;;;6.85;68.68;98648.44;5096037;28;20022;-65
2023/03/15 03:29:15;;;;;;;;;;;;;;;6.83;68.62;98650.13;5095764;28;19927;-65
2023/03/15 03:31:48;;;;;;;;;;;;;;;6.82;68.81;98649.28;5094728;28;19920;-66
2023/03/15 03:34:19;;;;;;;;;;;;;;;6.84;68.82;98652.66;5094687;28;19920;-66
2023/03/15 03:36:48;;;;;;;;;;;;;;;6.82;69.09;98653.50;5095463;28;19947;-66
2023/03/15 03:39:24;;;;;;;;;;;;;;;6.74;69.46;98648.47;5095814;28;20369;-66
2023/03/15 03:41:52;;;;;;;;;;;;;;;6.74;69.87;98645.94;5094206;28;20020;-65
2023/03/15 03:44:21;;;;;;;;;;;;;;;6.75;69.64;98656.06;5094516;28;19920;-66
2023/03/15 03:46:51;;;;;;;;;;;;;;;6.71;69.54;98663.69;5094325;28;20010;-65
2023/03/15 03:49:20;;;;;;;;;;;;;;;6.67;70.60;98659.47;5095311;28;19926;-65
2023/03/15 03:51:48;;;;;;;;;;;;;;;6.67;70.41;98665.34;5094023;28;19920;-66
2023/03/15 03:54:20;;;;;;;;;;;;;;;6.67;70.60;98672.97;5093990;28;20435;-65
2023/03/15 03:56:49;;;;;;;;;;;;;;;6.67;70.82;98672.16;5093965;28;19942;-66
2023/03/15 03:59:18;;;;;;;;;;;;;;;6.66;70.66;98671.28;5095294;28;19920;-66
2023/03/15 04:01:55;;;;;;;;;;;;;;;6.62;70.50;98677.19;5093819;28;19920;-65
2023/03/15 04:04:25;;;;;;;;;;;;;;;6.61;70.66;98679.75;5093889;28;20378;-66
2023/03/15 04:06:54;;;;;;;;;;;;;;;6.57;70.76;98684.00;5093709;28;20019;-65
2023/03/15 04:09:36;;;;;;;;;;;;;;;6.56;70.47;98682.28;5095126;28;19920;-66
2023/03/15 04:12:06;;;;;;;;;;;;;;;6.54;70.29;98678.91;5095079;28;20302;-66
2023/03/15 04:14:37;;;;;;;;;;;;;;;6.50;70.80;98677.22;5093884;28;19920;-65
2023/03/15 04:17:10;;;;;;;;;;;;;;;6.49;70.78;98670.47;5094752;28;20312;-65
2023/03/15 04:19:38;;;;;;;;;;;;;;;6.54;70.81;98671.31;5093398;28;19927;-65
2023/03/15 04:22:08;;;;;;;;;;;;;;;6.52;70.31;98667.94;5094624;28;19955;-67
2023/03/15 04:24:58;;;;;;;;;;;;;;;6.51;70.34;98666.25;5094953;28;19943;-65
2023/03/15 04:27:57;;;;;;;;;;;;;;;6.48;70.08;98668.78;5091092;28;19985;-65
2023/03/15 04:30:37;;;;;;;;;;;;;;;6.41;69.81;98672.16;5094816;28;19973;-65
2023/03/15 04:33:16;;;;;;;;;;;;;;;6.36;69.89;98686.50;5094788;28;19927;-65
2023/03/15 04:35:56;;;;;;;;;;;;;;;6.32;69.37;98692.44;5094422;28;19972;-65
2023/03/15 04:38:37;;;;;;;;;;;;;;;6.31;69.33;98690.72;5094276;28;19927;-66
2023/03/15 04:41:15;;;;;;;;;;;;;;;6.30;69.34;98704.25;5094686;28;19927;-65
2023/03/15 04:44:00;;;;;;;;;;;;;;;6.30;69.44;98705.94;5094343;28;19969;-66
2023/03/15 04:46:51;;;;;;;;;;;;;;;6.24;68.39;98700.88;5088573;28;19969;-66
2023/03/15 04:49:39;;;;;;;;;;;;;;;6.25;67.92;98716.06;5094170;28;19924;-66
2023/03/15 04:52:25;;;;;;;;;;;;;;;6.23;67.31;98732.97;5094208;28;19920;-65
2023/03/15 04:55:05;;;;;;;;;;;;;;;6.16;67.32;98731.28;5094219;28;19926;-66
2023/03/15 04:58:00;;;;;;;;;;;;;;;6.11;66.27;98725.34;5078306;28;19920;-66
2023/03/15 05:00:39;;;;;;;;;;;;;;;6.08;66.50;98721.13;5094377;28;19926;-66
2023/03/15 05:03:18;;;;;;;;;;;;;;;6.08;66.43;98736.31;5094163;28;19919;-65
2023/03/15 05:05:56;;;;;;;;;;;;;;;6.05;66.11;98732.94;5094651;28;20385;-68
2023/03/15 05:08:40;;;;;;;;;;;;;;;5.98;66.26;98737.13;5094127;28;19926;-66
2023/03/15 05:11:20;;;;;;;;;;;;;;;5.99;65.97;98740.53;5092973;28;19942;-66
2023/03/15 05:13:59;;;;;;;;;;;;;;;5.97;65.66;98744.75;5094012;28;19920;-66
2023/03/15 05:16:54;;;;;;;;;;;;;;;5.95;65.88;98751.50;5090634;28;19920;-65
2023/03/15 05:19:34;;;;;;;;;;;;;;;5.92;65.83;98747.28;5093859;28;19924;-65
2023/03/15 05:22:30;;;;;;;;;;;;;;;5.86;65.97;98751.44;5085037;28;19920;-66
2023/03/15 05:25:10;;;;;;;;;;;;;;;5.88;66.03;98750.63;5094454;28;19920;-66
2023/03/15 05:27:56;;;;;;;;;;;;;;;5.87;65.87;98755.69;5093887;28;19963;-66
2023/03/15 05:30:36;;;;;;;;;;;;;;;5.84;65.89;98753.09;5093820;28;19950;-65
2023/03/15 05:33:16;;;;;;;;;;;;;;;5.87;65.76;98753.16;5093791;28;19920;-65
2023/03/15 05:35:55;;;;;;;;;;;;;;;5.84;65.53;98753.09;5093829;28;19924;-66
2023/03/15 05:38:36;;;;;;;;;;;;;;;5.84;65.45;98765.75;5094459;28;19993;-66
2023/03/15 05:41:16;;;;;;;;;;;;;;;5.84;65.84;98775.88;5097654;28;19963;-65
2023/03/15 05:43:54;;;;;;;;;;;;;;;5.82;65.40;98787.69;5097906;28;20481;-65
2023/03/15 05:46:33;;;;;;;;;;;;;;;5.80;65.57;98791.91;5097956;28;20014;-65
2023/03/15 05:49:12;;;;;;;;;;;;;;;5.78;65.30;98789.34;5097551;28;19969;-65
2023/03/15 05:51:49;;;;;;;;;;;;;;;5.78;65.51;98783.47;5097397;28;20010;-65
2023/03/15 05:54:30;;;;;;;;;;;;;;;5.83;65.64;98792.75;5097752;28;20302;-65
2023/03/15 05:57:02;;;;;;;;;;;;;;;5.86;65.52;98797.03;5097344;28;19981;-65
2023/03/15 05:59:33;;;;;;;;;;;;;;;5.86;65.43;98794.50;5097287;28;19955;-65
2023/03/15 06:02:12;;;;;;;;;;;;;;;5.85;65.42;98801.25;5097661;28;19924;-65
2023/03/15 06:04:50;;;;;;;;;;;;;;;5.78;65.42;98806.25;5097289;28;19920;-65
2023/03/15 06:07:22;;;;;;;;;;;;;;;5.74;65.29;98796.94;5079433;28;19920;-65
2023/03/15 06:09:52;;;;;;;;;;;;;;;5.77;65.15;98805.41;5096268;28;19959;-66
2023/03/15 06:12:22;;;;;;;;;;;;;;;5.81;65.29;98813.84;5095966;28;19920;-65
2023/03/15 06:14:50;;;;;;;;;;;;;;;5.90;65.53;98824.06;5096114;28;19920;-65
2023/03/15 06:17:19;;;;;;;;;;;;;;;5.92;65.55;98835.03;5096666;28;20358;-65
2023/03/15 06:19:49;;;;;;;;;;;;;;;5.89;65.75;98845.16;5097164;28;20277;-65
2023/03/15 06:22:19;;;;;;;;;;;;;;;5.91;65.20;98854.44;5095767;28;19920;-65
2023/03/15 06:24:56;;;;;;;;;;;;;;;5.89;65.03;98857.81;5097227;28;19924;-65
2023/03/15 06:27:24;;;;;;;;;;;;;;;5.94;64.92;98868.81;5097095;28;19930;-65
2023/03/15 06:29:57;;;;;;;;;;;;;;;6.00;65.09;98866.28;5097125;28;19920;-65
2023/03/15 06:32:26;;;;;;;;;;;;;;;5.98;64.83;98876.41;5096837;28;19982;-65
2023/03/15 06:34:55;;;;;;;;;;;;;;;6.02;64.55;98882.34;5095834;28;19928;-64
2023/03/15 06:37:24;;;;;;;;;;;;;;;6.03;64.35;98889.09;5096596;28;19931;-65
2023/03/15 06:40:06;;;;;;;;;;;;;;;6.05;63.90;98889.94;5095366;28;19920;-65
2023/03/15 06:42:35;;;;;;;;;;;;;;;6.11;63.66;98887.47;5096833;28;19924;-65
2023/03/15 06:45:04;;;;;;;;;;;;;;;6.13;63.78;98889.97;5096492;28;19920;-65
2023/03/15 06:47:32;;;;;;;;;;;;;;;6.18;63.63;98896.78;5095587;28;19920;-65
2023/03/15 06:50:03;;;;;;;;;;;;;;;6.14;63.33;98900.16;5095042;28;19927;-66
2023/03/15 06:52:32;;;;;;;;;;;;;;;6.14;63.46;98900.16;5095379;28;19920;-65
2023/03/15 06:55:01;;;;;;;;;;;;;;;6.09;63.13;98910.22;5095036;28;19950;-65
2023/03/15 06:57:32;;;;;;;;;;;;;;;6.12;63.22;98911.94;5095113;28;19982;-64
2023/03/15 07:00:00;;;;;;;;;;;;;;;6.15;63.05;98916.16;5096151;28;19969;-65
2023/03/15 07:02:32;;;;;;;;;;;;;;;6.12;62.67;98917.00;5096212;28;19920;-65
2023/03/15 07:05:01;;;;;;;;;;;;;;;6.14;62.60;98922.94;5078411;28;20373;-64
2023/03/15 07:07:30;;;;;;;;;;;;;;;6.17;62.03;98922.94;5096146;28;19927;-64
2023/03/15 07:09:58;;;;;;;;;;;;;;;6.21;62.37;98941.53;5095909;28;19970;-65
2023/03/15 07:12:27;;;;;;;;;;;;;;;6.26;62.48;98935.66;5096381;28;20014;-65
2023/03/15 07:14:57;;;;;;;;;;;;;;;6.26;62.36;98939.88;5095800;28;19924;-65
2023/03/15 07:17:25;;;;;;;;;;;;;;;6.26;61.69;98940.72;5095608;28;19930;-65
2023/03/15 07:19:54;;;;;;;;;;;;;;;6.21;62.43;98937.31;5096355;28;19920;-65
2023/03/15 07:22:25;;;;;;;;;;;;;;;6.23;62.21;98935.63;5096076;28;20273;-65
2023/03/15 07:24:54;;;;;;;;;;;;;;;6.21;61.60;98932.25;5095735;28;19919;-65
2023/03/15 07:27:22;;;;;;;;;;;;;;;6.20;61.89;98930.56;5095450;28;19927;-64
2023/03/15 07:29:50;;;;;;;;;;;;;;;6.24;62.02;98939.03;5095965;28;19981;-65
2023/03/15 07:32:20;;;;;;;;;;;;;;;6.19;61.82;98938.16;5103419;28;19927;-65
2023/03/15 07:34:49;;;;;;;;;;;;;;;6.13;61.28;98928.84;5116192;28;20456;-64
2023/03/15 07:37:17;;;;;;;;;;;;;;;6.05;61.50;98943.13;5115867;28;19969;-65
2023/03/15 07:39:46;;;;;;;;;;;;;;;6.07;61.02;98937.25;5115755;28;19976;-65
2023/03/15 07:42:14;;;;;;;;;;;;;;;6.11;60.74;98938.13;5115840;28;19959;-65
2023/03/15 07:44:49;;;;;;;;;;;;;;;6.12;60.50;98942.31;5115931;28;19919;-65
2023/03/15 07:47:18;;;;;;;;;;;;;;;6.10;60.76;98938.94;5113283;28;19919;-65
2023/03/15 07:49:48;;;;;;;;;;;;;;;6.11;60.50;98935.59;5098371;28;19924;-66
2023/03/15 07:52:16;;;;;;;;;;;;;;;6.07;59.92;98927.09;5095161;28;19924;-64
2023/03/15 07:54:46;;;;;;;;;;;;;;;5.98;59.61;98918.63;5093853;28;19920;-64
2023/03/15 07:57:14;;;;;;;;;;;;;;;6.03;60.10;98927.09;5095086;28;19924;-65
2023/03/15 07:59:42;;;;;;;;;;;;;;;6.05;60.17;98926.25;5094986;28;19924;-65
2023/03/15 08:02:12;;;;;;;;;;;;;;;6.08;59.89;98931.34;5094575;28;19963;-65
2023/03/15 08:04:40;;;;;;;;;;;;;;;6.04;59.91;98923.72;5106211;28;19919;-66
2023/03/15 08:07:10;;;;;;;;;;;;;;;6.05;59.51;98930.47;5094906;28;19920;-65
2023/03/15 08:09:39;;;;;;;;;;;;;;;6.16;59.83;98944.06;5110549;28;19923;-65
2023/03/15 08:12:07;;;;;;;;;;;;;;;6.13;59.85;98949.09;5109044;28;19920;-64
2023/03/15 08:14:36;;;;;;;;;;;;;;;6.08;59.84;98956.66;5095296;28;19931;-64
2023/03/15 08:17:05;;;;;;;;;;;;;;;6.10;60.10;98954.13;5096937;28;19963;-65
2023/03/15 08:19:33;;;;;;;;;;;;;;;6.17;60.10;98960.09;5094861;28;19920;-66
2023/03/15 08:22:02;;;;;;;;;;;;;;;6.21;59.88;98970.25;5103137;28;19928;-66
2023/03/15 08:24:32;;;;;;;;;;;;;;;6.19;59.14;98966.84;5104755;28;19920;-66
2023/03/15 08:27:00;;;;;;;;;;;;;;;6.20;59.19;98963.47;5094525;28;19924;-65
2023/03/15 08:29:29;;;;;;;;;;;;;;;6.29;59.10;98961.00;5103297;28;19924;-65
2023/03/15 08:31:57;;;;;;;;;;;;;;;6.27;59.10;98962.66;5106036;28;19919;-65
2023/03/15 08:34:26;;;;;;;;;;;;;;;6.26;59.10;98955.94;5109711;28;19927;-65
2023/03/15 08:36:54;;;;;;;;;;;;;;;6.36;58.75;98957.63;5114673;28;19920;-65
2023/03/15 08:39:23;;;;;;;;;;;;;;;6.32;58.96;98971.16;5115026;28;19981;-65
2023/03/15 08:41:53;;;;;;;;;;;;;;;6.39;58.74;98983.00;5114543;28;19920;-66
2023/03/15 08:44:21;;;;;;;;;;;;;;;6.39;58.25;98987.22;5111516;28;19926;-65
2023/03/15 08:46:50;;;;;;;;;;;;;;;6.34;56.96;98989.72;5093904;28;19926;-66
2023/03/15 08:49:18;;;;;;;;;;;;;;;6.41;56.90;98998.19;5094054;28;19955;-67
2023/03/15 08:51:47;;;;;;;;;;;;;;;6.50;56.54;99001.63;5094258;28;20364;-66
2023/03/15 08:54:15;;;;;;;;;;;;;;;6.50;56.52;99006.69;5094388;28;19965;-65
2023/03/15 08:56:44;;;;;;;;;;;;;;;6.48;56.17;99017.66;5093688;28;19973;-65
2023/03/15 08:59:14;;;;;;;;;;;;;;;6.53;56.79;99037.13;5093927;28;19926;-65
2023/03/15 09:02:02;;;;;;;;;;;;;;;6.52;56.01;99032.91;5094438;28;20285;-66
2023/03/15 09:04:31;;;;;;;;;;;;;;;6.48;55.36;99041.31;5094415;28;20338;-65
2023/03/15 09:07:00;;;;;;;;;;;;;;;6.49;54.59;99039.66;5095834;28;19920;-67
2023/03/15 09:09:28;;;;;;;;;;;;;;;6.59;54.80;99032.09;5103156;28;20263;-67
2023/03/15 09:11:57;;;;;;;;;;;;;;;6.62;54.80;99037.16;5094224;28;19924;-66
2023/03/15 09:14:27;;;;;;;;;;;;;;;6.65;54.80;99047.31;5096314;28;19923;-65
2023/03/15 09:16:55;;;;;;;;;;;;;;;6.60;54.76;99049.00;5109658;28;19924;-67
2023/03/15 09:19:24;;;;;;;;;;;;;;;6.56;53.77;99049.81;5118428;28;19919;-67
2023/03/15 09:21:53;;;;;;;;;;;;;;;6.62;54.27;99054.91;5119255;28;19926;-66
2023/03/15 09:24:21;;;;;;;;;;;;;;;6.72;54.75;99068.47;5118312;28;19973;-65
2023/03/15 09:26:50;;;;;;;;;;;;;;;6.87;54.18;99080.38;5118397;28;19920;-65
2023/03/15 09:29:18;;;;;;;;;;;;;;;6.91;53.95;99092.25;5118541;28;20418;-65
2023/03/15 09:31:48;;;;;;;;;;;;;;;7.00;53.25;99077.94;5118907;28;20325;-66
2023/03/15 09:34:17;;;;;;;;;;;;;;;7.04;52.59;99078.75;5118334;28;19919;-65
2023/03/15 09:36:51;;;;;;;;;;;;;;;7.01;52.01;99082.13;5118496;28;20368;-67
2023/03/15 09:39:21;;;;;;;;;;;;;;;6.99;51.86;99072.81;5118473;28;19920;-66
2023/03/15 09:41:51;;;;;;;;;;;;;;;7.05;51.94;99072.84;5117110;28;19942;-66
2023/03/15 09:44:32;;;;;;;;;;;;;;;7.10;52.05;99078.81;5118375;28;20112;-66
2023/03/15 09:47:08;;;;;;;;;;;;;;;7.10;51.63;99091.47;5118180;28;20014;-65
2023/03/15 09:49:42;;;;;;;;;;;;;;;7.05;51.95;99094.00;5118294;28;19924;-66
2023/03/15 09:52:17;;;;;;;;;;;;;;;7.05;51.80;99083.00;5114589;28;19970;-65
2023/03/15 09:54:49;;;;;;;;;;;;;;;6.98;51.88;99088.91;5097511;28;19920;-66
2023/03/15 09:57:20;;;;;;;;;;;;;;;6.91;51.95;99090.53;5097847;28;19959;-66
2023/03/15 09:59:51;;;;;;;;;;;;;;;6.90;51.87;99093.09;5097674;28;19926;-65
2023/03/15 10:02:23;;;;;;;;;;;;;;;6.95;51.60;99092.28;5097333;28;19933;-66
2023/03/15 10:04:55;;;;;;;;;;;;;;;6.84;51.53;99093.06;5097243;28;19920;-66
2023/03/15 10:07:23;;;;;;;;;;;;;;;6.87;51.39;99091.38;5097079;28;19951;-67
2023/03/15 10:09:52;;;;;;;;;;;;;;;6.89;51.89;99101.53;5097419;28;19920;-66
2023/03/15 10:12:24;;;;;;;;;;;;;;;6.87;51.41;99101.53;5096949;28;19920;-66
2023/03/15 10:15:03;;;;;;;;;;;;;;;6.93;52.00;99106.66;5097763;28;20430;-66
2023/03/15 10:17:38;;;;;;;;;;;;;;;6.89;51.63;99091.38;5096934;28;20273;-65
2023/03/15 10:20:10;;;;;;;;;;;;;;;6.92;51.10;99093.94;5097334;28;19920;-65
2023/03/15 10:22:45;;;;;;;;;;;;;;;6.81;50.68;99093.06;5097436;28;20383;-66
2023/03/15 10:25:17;;;;;;;;;;;;;;;6.84;51.02;99093.06;5096654;28;19927;-66
2023/03/15 10:27:48;;;;;;;;;;;;;;;6.85;49.96;99094.75;5097309;28;20360;-65
2023/03/15 10:30:18;;;;;;;;;;;;;;;6.82;50.37;99092.19;5097132;28;19959;-68
2023/03/15 10:32:52;;;;;;;;;;;;;;;6.81;49.76;99105.72;5096774;28;20002;-66
2023/03/15 10:35:20;;;;;;;;;;;;;;;6.78;49.26;99103.16;5097074;28;19960;-65
2023/03/15 10:37:49;;;;;;;;;;;;;;;6.90;49.40;99098.16;5096901;28;19966;-66
2023/03/15 10:40:37;;;;;;;;;;;;;;;6.94;49.31;99104.94;5096588;28;19919;-65
2023/03/15 10:43:12;;;;;;;;;;;;;;;6.97;49.31;99112.56;5105575;28;19920;-65
2023/03/15 10:45:40;;;;;;;;;;;;;;;7.08;49.89;99093.19;5096583;28;19920;-67
2023/03/15 10:48:11;;;;;;;;;;;;;;;7.15;49.34;99105.03;5096357;28;19920;-65
2023/03/15 10:50:40;;;;;;;;;;;;;;;7.12;49.90;99110.09;5096611;28;20007;-65
2023/03/15 10:53:10;;;;;;;;;;;;;;;7.25;50.03;99116.88;5104162;28;20269;-65
2023/03/15 10:55:42;;;;;;;;;;;;;;;7.27;49.45;99115.22;5098816;28;20011;-65
2023/03/15 10:58:22;;;;;;;;;;;;;;;7.35;49.64;99118.63;5108748;28;19974;-66
2023/03/15 11:00:54;;;;;;;;;;;;;;;7.57;49.90;99124.59;5096184;28;20358;-66
2023/03/15 11:03:24;;;;;;;;;;;;;;;7.57;49.53;99107.69;5095465;28;20017;-65
2023/03/15 11:05:54;;;;;;;;;;;;;;;7.53;48.91;99108.53;5096350;28;19919;-65
2023/03/15 11:08:24;;;;;;;;;;;;;;;7.67;49.50;99106.84;5095204;28;19927;-65
2023/03/15 11:10:56;;;;;;;;;;;;;;;7.77;48.94;99106.03;5096379;28;19926;-66
2023/03/15 11:13:26;;;;;;;;;;;;;;;7.84;49.17;99100.09;5095533;28;20285;-66
2023/03/15 11:16:00;;;;;;;;;;;;;;;7.91;47.42;99106.88;5095890;28;19924;-68
2023/03/15 11:18:32;;;;;;;;;;;;;;;7.90;47.52;99102.63;5095895;28;19920;-66
2023/03/15 11:21:01;;;;;;;;;;;;;;;8.13;48.73;99108.56;5095822;28;19927;-65
2023/03/15 11:23:33;;;;;;;;;;;;;;;8.29;48.15;99100.97;5095972;28;20002;-65
2023/03/15 11:26:02;;;;;;;;;;;;;;;8.49;47.52;99101.78;5095732;28;19962;-65
2023/03/15 11:28:31;;;;;;;;;;;;;;;8.52;47.70;99096.69;5095656;28;19927;-65
2023/03/15 11:31:03;;;;;;;;;;;;;;;8.53;47.29;99093.31;5095882;28;19920;-65
2023/03/15 11:33:43;;;;;;;;;;;;;;;8.62;46.73;99098.34;5095597;28;20424;-65
2023/03/15 11:36:14;;;;;;;;;;;;;;;8.70;45.89;99106.81;5101196;28;19923;-65
2023/03/15 11:38:44;;;;;;;;;;;;;;;8.72;45.21;99115.31;5098310;28;20362;-65
2023/03/15 11:41:17;;;;;;;;;;;;;;;8.56;44.78;99121.28;5095460;28;19920;-66
2023/03/15 11:43:49;;;;;;;;;;;;;;;8.45;45.22;99130.59;5095579;28;19962;-65
2023/03/15 11:46:24;;;;;;;;;;;;;;;8.43;44.81;99125.53;5095896;28;19924;-64
2023/03/15 11:48:59;;;;;;;;;;;;;;;8.37;45.13;99134.88;5095311;28;20022;-64
2023/03/15 11:51:28;;;;;;;;;;;;;;;8.20;44.79;99136.53;5095246;28;20002;-64
2023/03/15 11:54:03;;;;;;;;;;;;;;;8.22;45.10;99129.75;5095836;28;20033;-65
2023/03/15 11:56:45;;;;;;;;;;;;;;;8.31;44.84;99137.41;5095085;28;19970;-64
2023/03/15 11:59:15;;;;;;;;;;;;;;;8.11;44.46;99130.59;5095406;28;20351;-65
2023/03/15 12:01:48;;;;;;;;;;;;;;;8.11;44.46;99135.66;5095401;28;20320;-65
2023/03/15 12:04:27;;;;;;;;;;;;;;;8.16;44.09;99137.38;5094933;28;19920;-65
2023/03/15 12:06:58;;;;;;;;;;;;;;;8.17;43.41;99139.91;5094864;28;19956;-63
2023/03/15 12:09:38;;;;;;;;;;;;;;;8.20;43.63;99142.47;5094901;28;19920;-64
2023/03/15 12:12:26;;;;;;;;;;;;;;;8.44;43.97;99146.72;5095281;28;19920;-64
2023/03/15 12:15:04;;;;;;;;;;;;;;;8.67;42.84;99147.53;5094612;28;20019;-66
2023/03/15 12:17:37;;;;;;;;;;;;;;;8.70;42.10;99152.63;5098015;28;19942;-66
2023/03/15 12:20:13;;;;;;;;;;;;;;;8.53;42.37;99154.34;5094904;28;19926;-65
2023/03/15 12:22:43;;;;;;;;;;;;;;;8.44;42.24;99144.19;5094730;28;19920;-65
2023/03/15 12:25:14;;;;;;;;;;;;;;;8.34;42.58;99150.97;5094846;28;19926;-64
2023/03/15 12:27:46;;;;;;;;;;;;;;;8.52;42.78;99166.19;5094075;28;19931;-65
2023/03/15 12:30:22;;;;;;;;;;;;;;;8.53;43.11;99159.41;5094078;28;20019;-66
2023/03/15 12:32:53;;;;;;;;;;;;;;;8.53;42.11;99170.44;5094679;28;19969;-64
2023/03/15 12:35:24;;;;;;;;;;;;;;;8.68;42.79;99169.59;5094783;28;19920;-65
2023/03/15 12:37:53;;;;;;;;;;;;;;;8.83;42.90;99174.63;5094642;28;20432;-65
2023/03/15 12:40:31;;;;;;;;;;;;;;;8.87;42.59;99191.59;5094414;28;19955;-64
2023/03/15 12:43:01;;;;;;;;;;;;;;;8.76;42.08;99193.28;5094290;28;19985;-65
2023/03/15 12:45:40;;;;;;;;;;;;;;;8.68;42.06;99189.94;5094691;28;19963;-65
2023/03/15 12:48:20;;;;;;;;;;;;;;;8.78;42.56;99202.63;5094015;28;19919;-64
2023/03/15 12:50:51;;;;;;;;;;;;;;;8.82;42.32;99203.47;5094708;28;20376;-65
2023/03/15 12:53:21;;;;;;;;;;;;;;;8.76;42.11;99193.28;5094649;28;19969;-65
2023/03/15 12:55:50;;;;;;;;;;;;;;;8.68;42.34;99200.09;5094185;28;20011;-66
2023/03/15 12:58:35;;;;;;;;;;;;;;;8.58;41.46;99180.63;5094480;28;19990;-64
2023/03/15 13:01:06;;;;;;;;;;;;;;;8.55;41.27;99185.69;5092597;28;19919;-64
2023/03/15 13:03:35;;;;;;;;;;;;;;;8.62;42.14;99195.88;5094852;28;19931;-65
2023/03/15 13:06:09;;;;;;;;;;;;;;;8.64;42.42;99199.25;5102478;28;19997;-66
2023/03/15 13:08:41;;;;;;;;;;;;;;;8.68;42.34;99193.34;5103548;28;19919;-64
2023/03/15 13:11:17;;;;;;;;;;;;;;;8.71;42.00;99198.41;5104581;28;20097;-65
2023/03/15 13:13:55;;;;;;;;;;;;;;;8.62;42.48;99192.47;5107444;28;19920;-65
2023/03/15 13:16:28;;;;;;;;;;;;;;;8.59;42.53;99200.13;5102993;28;20022;-65
2023/03/15 13:19:04;;;;;;;;;;;;;;;8.61;42.96;99200.97;5108495;28;19972;-66
2023/03/15 13:21:34;;;;;;;;;;;;;;;8.53;42.49;99205.19;5114551;28;19979;-64
2023/03/15 13:24:06;;;;;;;;;;;;;;;8.53;42.68;99200.97;5114454;28;19919;-65